createdAt,value
2022-08-24T00:00:26.875Z,27.70
2022-08-24T00:02:55.090Z,27.20
2022-08-24T00:05:23.429Z,27.90
2022-08-24T00:07:51.742Z,27.50
2022-08-24T00:10:22.084Z,27.70
2022-08-24T00:12:50.954Z,27.40
2022-08-24T00:15:19.591Z,27.70
2022-08-24T00:17:49.034Z,27.60
2022-08-24T00:20:17.308Z,27.50
2022-08-24T00:22:45.669Z,27.20
2022-08-24T00:25:14.887Z,27.40
2022-08-24T00:27:43.586Z,27.10
2022-08-24T00:30:16.339Z,27.30
2022-08-24T00:32:45.384Z,27.20
2022-08-24T00:35:18.255Z,27.20
2022-08-24T00:37:47.882Z,27.20
2022-08-24T00:40:23.364Z,27.30
2022-08-24T00:42:52.268Z,27.40
2022-08-24T00:45:22.030Z,27.70
2022-08-24T00:47:56.582Z,27.30
2022-08-24T00:50:35.691Z,27.20
2022-08-24T00:53:10.033Z,27.30
2022-08-24T00:55:43.457Z,27.10
2022-08-24T00:58:20.493Z,27.50
2022-08-24T01:00:54.240Z,27.20
2022-08-24T01:03:22.882Z,27.70
2022-08-24T01:05:52.767Z,27.10
2022-08-24T01:08:21.665Z,27.10
2022-08-24T01:10:56.665Z,27.80
2022-08-24T01:13:26.143Z,27.60
2022-08-24T01:15:59.519Z,27.20
2022-08-24T01:18:46.853Z,27.70
2022-08-24T01:21:22.454Z,27.50
2022-08-24T01:23:55.303Z,27.10
2022-08-24T01:26:27.712Z,27.30
2022-08-24T01:29:01.144Z,27.40
2022-08-24T01:31:29.961Z,27.60
2022-08-24T01:33:58.248Z,27.20
2022-08-24T01:36:33.523Z,27.60
2022-08-24T01:39:09.905Z,27.50
2022-08-24T01:41:38.128Z,27.50
2022-08-24T01:44:06.587Z,27.10
2022-08-24T01:46:35.427Z,27.50
2022-08-24T01:49:05.288Z,27.20
2022-08-24T01:51:34.980Z,27.20
2022-08-24T01:54:06.585Z,27.50
2022-08-24T01:56:36.494Z,27.30
2022-08-24T01:59:07.617Z,27.50
2022-08-24T02:01:40.035Z,27.20
2022-08-24T02:04:10.079Z,27.10
2022-08-24T02:06:39.484Z,27.60
2022-08-24T02:09:09.026Z,27.10
2022-08-24T02:11:39.361Z,27.60
2022-08-24T02:14:08.252Z,27.30
2022-08-24T02:16:36.780Z,27.40
2022-08-24T02:19:05.057Z,27.70
2022-08-24T02:21:33.504Z,27.00
2022-08-24T02:24:01.573Z,27.10
2022-08-24T02:26:31.438Z,27.20
2022-08-24T02:29:03.803Z,27.50
2022-08-24T02:31:32.313Z,27.60
2022-08-24T02:34:00.696Z,27.40
2022-08-24T02:36:28.731Z,27.30
2022-08-24T02:38:57.578Z,27.20
2022-08-24T02:41:26.382Z,27.20
2022-08-24T02:43:56.857Z,27.40
2022-08-24T02:46:28.834Z,27.00
2022-08-24T02:49:10.675Z,27.00
2022-08-24T02:51:47.252Z,27.10
2022-08-24T02:54:18.177Z,27.20
2022-08-24T02:56:46.903Z,27.10
2022-08-24T02:59:17.562Z,27.20
2022-08-24T03:01:46.917Z,27.20
2022-08-24T03:04:18.545Z,27.10
2022-08-24T03:06:46.731Z,27.40
2022-08-24T03:09:15.336Z,27.10
2022-08-24T03:11:45.125Z,27.00
2022-08-24T03:14:14.039Z,27.10
2022-08-24T03:16:44.005Z,26.90
2022-08-24T03:19:12.592Z,26.90
2022-08-24T03:21:41.632Z,27.10
2022-08-24T03:24:10.762Z,27.00
2022-08-24T03:26:39.031Z,27.00
2022-08-24T03:29:12.532Z,27.00
2022-08-24T03:31:40.608Z,27.10
2022-08-24T03:34:13.537Z,27.00
2022-08-24T03:36:45.868Z,27.10
2022-08-24T03:39:14.120Z,27.00
2022-08-24T03:41:42.360Z,27.10
2022-08-24T03:44:10.499Z,26.80
2022-08-24T03:46:39.688Z,27.00
2022-08-24T03:49:10.770Z,27.30
2022-08-24T03:51:39.371Z,27.40
2022-08-24T03:54:13.065Z,27.10
2022-08-24T03:56:42.204Z,27.00
2022-08-24T03:59:11.392Z,27.40
2022-08-24T04:01:40.966Z,27.20
2022-08-24T04:04:11.223Z,27.00
2022-08-24T04:06:44.110Z,27.20
2022-08-24T04:09:12.643Z,26.90
2022-08-24T04:11:41.660Z,27.40
2022-08-24T04:14:20.276Z,27.30
2022-08-24T04:16:57.553Z,27.40
2022-08-24T04:19:28.565Z,27.20
2022-08-24T04:21:57.352Z,27.00
2022-08-24T04:24:26.232Z,26.90
2022-08-24T04:26:54.488Z,27.20
2022-08-24T04:29:22.776Z,27.20
2022-08-24T04:31:50.859Z,27.10
2022-08-24T04:34:19.412Z,27.00
2022-08-24T04:36:49.030Z,26.80
2022-08-24T04:39:17.255Z,27.00
2022-08-24T04:41:45.317Z,26.60
2022-08-24T04:44:15.045Z,27.20
2022-08-24T04:46:43.173Z,26.80
2022-08-24T04:49:11.600Z,26.80
2022-08-24T04:51:39.670Z,26.80
2022-08-24T04:54:09.321Z,26.90
2022-08-24T04:56:37.946Z,26.80
2022-08-24T04:59:06.917Z,26.60
2022-08-24T05:01:35.212Z,26.90
2022-08-24T05:04:05.125Z,26.60
2022-08-24T05:06:34.226Z,26.50
2022-08-24T05:09:05.039Z,26.70
2022-08-24T05:11:37.052Z,26.60
2022-08-24T05:14:05.949Z,26.50
2022-08-24T05:16:38.165Z,26.60
2022-08-24T05:19:08.025Z,26.60
2022-08-24T05:21:36.193Z,26.80
2022-08-24T05:24:05.074Z,26.80
2022-08-24T05:26:34.488Z,26.60
2022-08-24T05:29:04.068Z,26.60
2022-08-24T05:31:34.615Z,26.50
2022-08-24T05:34:04.469Z,26.50
2022-08-24T05:36:37.941Z,26.70
2022-08-24T05:39:11.524Z,26.50
2022-08-24T05:41:44.255Z,26.50
2022-08-24T05:44:14.024Z,26.50
2022-08-24T05:46:43.041Z,26.60
2022-08-24T05:49:12.281Z,26.80
2022-08-24T05:51:42.528Z,26.60
2022-08-24T05:54:11.316Z,26.50
2022-08-24T05:56:40.700Z,26.70
2022-08-24T05:59:09.488Z,26.60
2022-08-24T06:01:40.325Z,26.70
2022-08-24T06:04:12.320Z,26.60
2022-08-24T06:06:40.364Z,26.50
2022-08-24T06:09:08.429Z,26.70
2022-08-24T06:11:39.943Z,26.70
2022-08-24T06:14:13.396Z,26.70
2022-08-24T06:16:45.734Z,26.80
2022-08-24T06:19:17.520Z,26.90
2022-08-24T06:21:47.987Z,26.80
2022-08-24T06:24:16.833Z,26.80
2022-08-24T06:27:04.172Z,26.80
2022-08-24T06:29:35.336Z,26.90
2022-08-24T06:32:03.862Z,26.80
2022-08-24T06:34:31.957Z,26.70
2022-08-24T06:37:01.058Z,26.50
2022-08-24T06:39:29.313Z,26.70
2022-08-24T06:41:57.386Z,26.80
2022-08-24T06:44:25.423Z,26.60
2022-08-24T06:46:54.938Z,26.60
2022-08-24T06:49:23.704Z,26.60
2022-08-24T06:51:51.889Z,27.00
2022-08-24T06:54:21.720Z,26.80
2022-08-24T06:56:49.991Z,26.70
2022-08-24T06:59:18.881Z,26.60
2022-08-24T07:01:47.061Z,26.80
2022-08-24T07:04:16.559Z,26.80
2022-08-24T07:06:45.088Z,26.80
2022-08-24T07:09:13.383Z,26.80
2022-08-24T07:11:41.807Z,26.60
2022-08-24T07:14:10.253Z,26.70
2022-08-24T07:16:38.526Z,26.80
2022-08-24T07:19:07.007Z,26.70
2022-08-24T07:21:36.854Z,26.60
2022-08-24T07:24:07.038Z,26.40
2022-08-24T07:26:35.354Z,26.70
2022-08-24T07:29:06.330Z,26.70
2022-08-24T07:31:35.852Z,26.80
2022-08-24T07:34:05.563Z,26.70
2022-08-24T07:36:34.288Z,26.90
2022-08-24T07:39:04.129Z,26.80
2022-08-24T07:44:21.054Z,26.70
2022-08-24T07:46:49.308Z,26.60
2022-08-24T07:49:36.209Z,26.70
2022-08-24T07:52:05.964Z,26.50
2022-08-24T07:54:35.982Z,26.70
2022-08-24T07:57:06.467Z,26.70
2022-08-24T07:59:34.955Z,26.70
2022-08-24T08:02:03.260Z,26.60
2022-08-24T08:04:31.712Z,26.80
2022-08-24T08:07:00.780Z,26.60
2022-08-24T08:09:29.261Z,26.60
2022-08-24T08:11:58.664Z,26.80
2022-08-24T08:14:26.797Z,27.20
2022-08-24T08:16:54.949Z,27.20
2022-08-24T08:19:23.110Z,26.90
2022-08-24T08:25:58.549Z,26.90
2022-08-24T08:28:35.848Z,27.00
2022-08-24T08:31:06.662Z,27.00
2022-08-24T08:33:35.960Z,27.10
2022-08-24T08:36:09.966Z,27.10
2022-08-24T08:38:40.333Z,27.10
2022-08-24T08:41:43.978Z,27.40
2022-08-24T08:44:25.706Z,27.20
2022-08-24T08:47:08.478Z,27.20
2022-08-24T08:50:00.576Z,27.20
2022-08-24T08:53:02.774Z,27.10
2022-08-24T08:55:37.705Z,27.60
2022-08-24T08:58:33.737Z,27.40
2022-08-24T09:01:14.482Z,27.80
2022-08-24T09:04:20.941Z,27.80
2022-08-24T09:07:20.976Z,27.20
2022-08-24T09:10:17.755Z,27.60
2022-08-24T09:13:08.801Z,27.60
2022-08-24T09:15:59.984Z,27.50
2022-08-24T09:18:46.473Z,27.30
2022-08-24T09:21:42.295Z,27.60
2022-08-24T09:24:38.067Z,27.60
2022-08-24T09:27:16.522Z,27.80
2022-08-24T09:30:07.851Z,27.80
2022-08-24T09:32:56.655Z,27.90
2022-08-24T09:35:42.358Z,27.60
2022-08-24T09:38:24.706Z,28.20
2022-08-24T09:41:23.976Z,27.90
2022-08-24T09:44:25.168Z,27.90
2022-08-24T09:47:50.497Z,27.90
2022-08-24T09:50:55.888Z,27.80
2022-08-24T09:53:55.655Z,27.80
2022-08-24T09:56:42.508Z,27.90
2022-08-24T09:59:28.048Z,28.00
2022-08-24T10:02:17.135Z,28.10
2022-08-24T10:04:57.850Z,28.20
2022-08-24T10:07:37.624Z,28.20
2022-08-24T10:10:25.823Z,28.10
2022-08-24T10:13:15.751Z,28.20
2022-08-24T10:15:56.433Z,28.30
2022-08-24T10:18:40.594Z,28.50
2022-08-24T10:21:24.437Z,28.50
2022-08-24T10:24:13.202Z,28.40
2022-08-24T10:27:03.218Z,28.20
2022-08-24T10:29:48.885Z,28.20
2022-08-24T10:32:35.294Z,28.30
2022-08-24T10:35:11.406Z,28.60
2022-08-24T10:38:25.267Z,28.20
2022-08-24T10:41:27.756Z,28.20
2022-08-24T10:44:28.520Z,28.70
2022-08-24T10:47:00.812Z,28.40
2022-08-24T10:50:21.325Z,28.10
2022-08-24T10:53:18.615Z,28.40
2022-08-24T10:55:47.810Z,28.90
2022-08-24T10:58:46.349Z,28.90
2022-08-24T11:01:24.132Z,28.50
2022-08-24T11:03:58.820Z,29.00
2022-08-24T11:06:31.833Z,29.70
2022-08-24T11:09:06.056Z,29.60
2022-08-24T11:11:40.440Z,29.40
2022-08-24T11:14:24.969Z,29.10
2022-08-24T11:16:57.526Z,29.00
2022-08-24T11:19:35.977Z,29.00
2022-08-24T11:22:22.657Z,28.60
2022-08-24T11:24:55.586Z,28.80
2022-08-24T11:27:31.871Z,28.80
2022-08-24T11:30:12.725Z,28.60
2022-08-24T11:32:45.176Z,28.80
2022-08-24T11:35:26.402Z,29.10
2022-08-24T11:38:08.348Z,28.50
2022-08-24T11:40:46.355Z,28.80
2022-08-24T11:43:29.908Z,29.10
2022-08-24T11:46:12.442Z,29.10
2022-08-24T11:48:56.761Z,29.10
2022-08-24T11:51:38.234Z,29.10
2022-08-24T11:54:13.988Z,29.00
2022-08-24T11:56:54.528Z,29.20
2022-08-24T11:59:37.729Z,28.80
2022-08-24T12:02:12.834Z,29.00
2022-08-24T12:04:52.169Z,29.10
2022-08-24T12:07:36.671Z,29.00
2022-08-24T12:10:24.238Z,28.60
2022-08-24T12:13:00.303Z,28.80
2022-08-24T12:15:41.584Z,28.80
2022-08-24T12:18:25.090Z,29.10
2022-08-24T12:20:55.583Z,29.50
2022-08-24T12:23:31.716Z,29.20
2022-08-24T12:26:06.175Z,29.50
2022-08-24T12:28:39.955Z,29.70
2022-08-24T12:31:17.457Z,29.50
2022-08-24T12:33:51.514Z,29.60
2022-08-24T12:36:32.065Z,29.80
2022-08-24T12:39:13.659Z,29.50
2022-08-24T12:41:56.281Z,29.50
2022-08-24T12:44:32.606Z,29.60
2022-08-24T12:47:00.709Z,29.60
2022-08-24T12:49:36.406Z,29.50
2022-08-24T12:52:26.973Z,29.60
2022-08-24T12:55:19.035Z,29.60
2022-08-24T12:57:55.927Z,29.60
2022-08-24T13:00:33.360Z,29.50
2022-08-24T13:03:07.361Z,29.60
2022-08-24T13:05:49.057Z,29.80
2022-08-24T13:08:35.379Z,29.70
2022-08-24T13:11:09.444Z,29.30
2022-08-24T13:13:49.931Z,29.20
2022-08-24T13:17:06.029Z,29.20
2022-08-24T13:19:39.598Z,29.80
2022-08-24T13:22:49.853Z,29.40
2022-08-24T13:25:44.938Z,29.40
2022-08-24T13:28:39.768Z,29.90
2022-08-24T13:31:28.922Z,29.60
2022-08-24T13:34:38.029Z,29.90
2022-08-24T13:37:15.899Z,29.90
2022-08-24T13:40:02.389Z,29.80
2022-08-24T13:42:59.511Z,30.00
2022-08-24T13:45:37.405Z,29.90
2022-08-24T13:48:24.122Z,29.70
2022-08-24T13:51:29.968Z,29.70
2022-08-24T13:54:24.158Z,29.60
2022-08-24T13:57:17.164Z,29.40
2022-08-24T14:00:26.369Z,29.60
2022-08-24T14:03:22.750Z,29.50
2022-08-24T14:05:57.773Z,29.80
2022-08-24T14:08:44.137Z,29.60
2022-08-24T14:11:18.401Z,29.80
2022-08-24T14:14:07.349Z,29.70
2022-08-24T14:17:19.349Z,29.80
2022-08-24T14:20:04.346Z,29.30
2022-08-24T14:22:37.536Z,29.50
2022-08-24T14:25:20.941Z,29.70
2022-08-24T14:27:50.946Z,29.70
2022-08-24T14:30:50.305Z,29.20
2022-08-24T14:33:34.416Z,29.40
2022-08-24T14:36:17.073Z,29.60
2022-08-24T14:39:05.544Z,29.70
2022-08-24T14:41:58.502Z,29.40
2022-08-24T14:45:01.585Z,29.60
2022-08-24T14:47:47.432Z,29.70
2022-08-24T14:50:20.411Z,29.70
2022-08-24T14:53:08.733Z,29.70
2022-08-24T14:55:45.730Z,29.60
2022-08-24T14:58:29.334Z,29.70
2022-08-24T15:01:49.360Z,29.30
2022-08-24T15:04:38.154Z,29.50
2022-08-24T15:07:26.332Z,29.90
2022-08-24T15:09:56.589Z,29.60
2022-08-24T15:12:38.421Z,29.60
2022-08-24T15:15:15.192Z,29.70
2022-08-24T15:18:00.087Z,29.70
2022-08-24T15:20:46.154Z,29.40
2022-08-24T15:23:22.673Z,29.80
2022-08-24T15:25:57.096Z,29.60
2022-08-24T15:28:29.632Z,29.70
2022-08-24T15:31:00.995Z,29.50
2022-08-24T15:33:31.724Z,29.50
2022-08-24T15:36:12.726Z,29.30
2022-08-24T15:38:43.167Z,29.70
2022-08-24T15:41:18.853Z,29.50
2022-08-24T15:43:50.840Z,29.50
2022-08-24T15:46:24.546Z,29.60
2022-08-24T15:49:00.992Z,29.20
2022-08-24T15:51:53.186Z,29.40
2022-08-24T15:54:36.113Z,29.50
2022-08-24T15:57:08.860Z,29.20
2022-08-24T15:59:49.614Z,29.40
2022-08-24T16:02:26.537Z,29.50
2022-08-24T16:05:14.445Z,29.20
2022-08-24T16:08:17.198Z,29.40
2022-08-24T16:10:50.979Z,29.30
2022-08-24T16:13:29.209Z,29.50
2022-08-24T16:16:06.887Z,29.10
2022-08-24T16:18:55.254Z,29.60
2022-08-24T16:21:34.440Z,29.00
2022-08-24T16:24:09.869Z,29.30
2022-08-24T16:27:07.116Z,29.30
2022-08-24T16:29:55.535Z,29.40
2022-08-24T16:32:33.654Z,29.30
2022-08-24T16:35:20.241Z,29.10
2022-08-24T16:37:48.391Z,29.10
2022-08-24T16:40:18.361Z,29.50
2022-08-24T16:42:46.969Z,28.80
2022-08-24T16:45:19.090Z,29.30
2022-08-24T16:47:47.947Z,29.30
2022-08-24T16:50:20.293Z,28.70
2022-08-24T16:52:48.771Z,29.20
2022-08-24T16:55:18.329Z,29.10
2022-08-24T16:57:47.497Z,28.70
2022-08-24T17:00:21.836Z,29.20
2022-08-24T17:02:50.861Z,28.80
2022-08-24T17:05:19.849Z,29.00
2022-08-24T17:07:50.076Z,28.90
2022-08-24T17:10:23.087Z,29.20
2022-08-24T17:12:51.245Z,29.20
2022-08-24T17:15:20.088Z,28.90
2022-08-24T17:17:57.489Z,29.10
2022-08-24T17:20:25.890Z,29.10
2022-08-24T17:22:54.268Z,29.00
2022-08-24T17:25:24.336Z,29.10
2022-08-24T17:27:53.986Z,29.20
2022-08-24T17:30:23.706Z,29.00
2022-08-24T17:32:52.401Z,29.20
2022-08-24T17:35:21.315Z,28.70
2022-08-24T17:37:52.105Z,29.10
2022-08-24T17:40:29.761Z,28.90
2022-08-24T17:42:57.976Z,29.00
2022-08-24T17:45:26.141Z,29.10
2022-08-24T17:47:54.473Z,29.00
2022-08-24T17:50:24.076Z,29.10
2022-08-24T17:52:56.286Z,29.20
2022-08-24T17:55:29.443Z,29.10
2022-08-24T17:57:58.234Z,28.70
2022-08-24T18:00:26.351Z,29.00
2022-08-24T18:02:54.435Z,29.10
2022-08-24T18:05:22.659Z,28.90
2022-08-24T18:07:54.829Z,29.10
2022-08-24T18:10:27.405Z,29.30
2022-08-24T18:12:57.780Z,28.90
2022-08-24T18:15:34.733Z,28.70
2022-08-24T18:18:08.909Z,28.60
2022-08-24T18:20:40.351Z,28.50
2022-08-24T18:23:11.655Z,28.80
2022-08-24T18:25:48.882Z,28.60
2022-08-24T18:28:22.030Z,28.70
2022-08-24T18:30:52.428Z,28.50
2022-08-24T18:33:20.476Z,28.70
2022-08-24T18:35:48.551Z,28.90
2022-08-24T18:38:16.698Z,28.60
2022-08-24T18:40:52.170Z,28.60
2022-08-24T18:43:24.590Z,28.60
2022-08-24T18:45:54.265Z,28.30
2022-08-24T18:48:22.514Z,28.90
2022-08-24T18:50:51.552Z,28.60
2022-08-24T18:53:20.103Z,28.40
2022-08-24T18:55:48.855Z,28.90
2022-08-24T18:58:16.940Z,28.50
2022-08-24T19:00:47.057Z,28.80
2022-08-24T19:03:27.142Z,28.50
2022-08-24T19:05:55.616Z,28.40
2022-08-24T19:08:23.948Z,28.60
2022-08-24T19:10:52.771Z,28.40
2022-08-24T19:13:21.108Z,28.60
2022-08-24T19:15:51.149Z,28.00
2022-08-24T19:18:23.483Z,28.40
2022-08-24T19:20:55.214Z,28.80
2022-08-24T19:23:27.621Z,28.70
2022-08-24T19:25:56.548Z,28.70
2022-08-24T19:28:26.325Z,28.40
2022-08-24T19:30:57.794Z,28.50
2022-08-24T19:33:29.240Z,28.30
2022-08-24T19:35:59.022Z,28.60
2022-08-24T19:38:27.334Z,28.50
2022-08-24T19:40:57.983Z,28.40
2022-08-24T19:43:27.742Z,28.10
2022-08-24T19:46:05.236Z,28.20
2022-08-24T19:48:36.185Z,28.30
2022-08-24T19:51:06.360Z,28.30
2022-08-24T19:53:37.409Z,28.10
2022-08-24T19:56:06.752Z,28.30
2022-08-24T19:58:41.508Z,28.20
2022-08-24T20:01:14.236Z,28.40
2022-08-24T20:03:42.415Z,28.40
2022-08-24T20:06:10.984Z,28.30
2022-08-24T20:08:39.832Z,28.30
2022-08-24T20:11:08.737Z,28.10
2022-08-24T20:13:37.337Z,28.30
2022-08-24T20:16:07.225Z,28.30
2022-08-24T20:18:40.655Z,28.20
2022-08-24T20:21:09.478Z,28.50
2022-08-24T20:23:38.388Z,28.20
2022-08-24T20:26:08.348Z,28.20
2022-08-24T20:28:41.411Z,28.30
2022-08-24T20:31:10.487Z,28.40
2022-08-24T20:33:40.237Z,28.10
2022-08-24T20:36:14.436Z,28.10
2022-08-24T20:38:45.358Z,28.20
2022-08-24T20:41:13.529Z,28.30
2022-08-24T20:43:41.592Z,28.20
2022-08-24T20:46:10.957Z,28.30
2022-08-24T20:48:43.175Z,28.10
2022-08-24T20:51:11.585Z,28.00
2022-08-24T20:53:39.635Z,28.20
2022-08-24T20:56:12.893Z,28.20
2022-08-24T20:58:41.646Z,28.00
2022-08-24T21:01:09.960Z,28.00
2022-08-24T21:03:39.962Z,28.20
2022-08-24T21:06:09.985Z,28.30
2022-08-24T21:08:38.130Z,28.40
2022-08-24T21:11:06.772Z,28.60
2022-08-24T21:13:35.668Z,28.40
2022-08-24T21:16:06.121Z,28.40
2022-08-24T21:18:34.435Z,28.50
2022-08-24T21:21:04.791Z,28.50
2022-08-24T21:23:34.562Z,28.30
2022-08-24T21:26:05.067Z,28.30
2022-08-24T21:28:34.820Z,28.10
2022-08-24T21:31:06.223Z,28.10
2022-08-24T21:33:52.180Z,28.80
2022-08-24T21:36:23.298Z,28.70
2022-08-24T21:38:52.395Z,28.40
2022-08-24T21:41:21.712Z,28.80
2022-08-24T21:43:49.799Z,28.40
2022-08-24T21:46:18.280Z,28.40
2022-08-24T21:48:47.807Z,28.30
2022-08-24T21:51:16.253Z,28.60
2022-08-24T21:53:46.417Z,28.50
2022-08-24T21:56:23.480Z,28.40
2022-08-24T21:58:52.136Z,28.40
2022-08-24T22:01:20.764Z,28.60
2022-08-24T22:03:48.917Z,28.40
2022-08-24T22:06:17.316Z,28.30
2022-08-24T22:08:46.828Z,28.80
2022-08-24T22:11:17.945Z,28.60
2022-08-24T22:13:46.997Z,28.60
2022-08-24T22:16:15.217Z,28.40
2022-08-24T22:18:43.325Z,28.50
2022-08-24T22:21:14.349Z,28.70
2022-08-24T22:23:42.788Z,28.60
2022-08-24T22:26:13.201Z,28.60
2022-08-24T22:28:42.698Z,28.20
2022-08-24T22:31:19.570Z,28.30
2022-08-24T22:33:47.879Z,28.60
2022-08-24T22:36:17.369Z,28.70
2022-08-24T22:38:46.181Z,28.20
2022-08-24T22:41:15.999Z,28.70
2022-08-24T22:44:02.082Z,28.40
2022-08-24T22:46:30.392Z,28.50
2022-08-24T22:48:58.516Z,28.50
2022-08-24T22:51:26.788Z,28.40
2022-08-24T22:53:55.193Z,28.60
2022-08-24T22:56:27.252Z,28.30
2022-08-24T22:58:56.741Z,28.20
2022-08-24T23:01:29.672Z,28.50
2022-08-24T23:04:00.718Z,28.50
2022-08-24T23:06:29.656Z,28.40
2022-08-24T23:08:58.364Z,28.40
2022-08-24T23:11:28.095Z,28.30
2022-08-24T23:13:58.577Z,28.40
2022-08-24T23:16:28.016Z,28.40
2022-08-24T23:19:13.987Z,28.30
2022-08-24T23:21:42.744Z,28.20
2022-08-24T23:24:12.732Z,28.30
2022-08-24T23:26:43.710Z,28.10
2022-08-24T23:29:14.570Z,28.50
2022-08-24T23:31:43.699Z,28.60
2022-08-24T23:34:12.310Z,28.30
2022-08-24T23:36:40.949Z,28.20
2022-08-24T23:39:11.163Z,28.50
2022-08-24T23:41:44.134Z,28.60
2022-08-24T23:44:17.592Z,28.20
2022-08-24T23:46:46.564Z,28.30
2022-08-24T23:49:17.069Z,28.50
2022-08-24T23:51:45.147Z,28.40
2022-08-24T23:54:13.832Z,28.30
2022-08-24T23:56:46.481Z,28.70
2022-08-24T23:59:18.576Z,28.40
